Latest Weather Observations for Cape Byron

IDN60801

Issued at 4:35 pm EDT Friday 27 February 2015 (issued every 30 minutes, with the page automatically refreshed every 10 minutes)

About weather observations | Map of weather stations | Latest weather observations for NSW | Other Formats
Station Details ID: 058216 Name: CAPE BYRON AWS Lat: -28.64 Lon: 153.64 Height: 95.0 m
Data from the previous 72 hours. | See also: Recent months at Cape Byron
Date/Time
EDT
Temp
°C
App
Temp
°C
Dew
Point
Rel
Hum
%
Delta-T
°C
Wind Press
QNH
hPa
Press
MSL
hPa
Rain
since 9 am
mm
Dir
 
Spd
km/h
Gust
km/h
Spd
kts
Gust
kts
27/04:30pm 25.8 26.1 20.4 72 3.5 NE 19 28 10 15 1007.9 1007.4 0.0
27/04:00pm 26.1 26.2 20.4 71 3.7 NE 20 28 11 15 1007.9 1007.4 0.0
27/03:30pm 27.2 26.0 20.0 64 4.7 NE 26 33 14 18 1007.9 1007.4 0.0
27/03:00pm 27.8 26.1 19.8 61 5.2 NE 28 33 15 18 1008.1 1007.6 0.0
27/02:30pm 27.7 26.1 20.0 63 5.0 NE 28 33 15 18 1008.2 1007.7 0.0
27/02:00pm 28.1 26.8 20.6 63 5.0 NE 28 32 15 17 1008.4 1007.9 0.0
27/01:30pm 28.0 28.1 20.3 63 5.1 NE 20 28 11 15 1008.9 1008.4 0.0
27/01:00pm 27.9 27.9 20.2 63 5.1 NE 20 30 11 16 1009.0 1008.5 0.0
27/12:30pm 27.6 28.3 20.4 65 4.7 NNE 17 24 9 13 1009.2 1008.7 0.0
27/12:00pm 27.9 28.9 20.2 63 5.1 N 15 20 8 11 1009.8 1009.3 0.0
27/11:30am 27.3 28.6 20.1 64 4.7 N 13 20 7 11 1010.1 1009.6 0.0
27/11:00am 26.9 28.1 20.0 66 4.5 N 13 19 7 10 1010.2 1009.7 0.0
27/10:30am 26.4 28.2 20.3 69 4.0 N 11 15 6 8 1010.3 1009.8 0.0
27/10:00am 25.5 27.3 20.3 73 3.4 NNE 11 19 6 10 1010.1 1009.6 0.0
27/09:30am 24.5 24.5 19.8 75 3.0 N 19 28 10 15 1009.6 1009.1 0.0
27/09:00am 24.6 24.1 19.9 75 3.1 N 22 30 12 16 1009.1 1008.6 0.0
27/08:30am 24.0 24.0 20.1 79 2.5 N 20 30 11 16 1009.0 1008.5 0.0
27/08:00am 23.3 23.5 20.1 82 2.1 NNE 19 28 10 15 1008.5 1008.0 0.0
27/07:30am 22.8 23.3 20.0 84 1.8 N 17 26 9 14 1008.6 1008.1 0.0
27/07:00am 21.9 22.3 19.1 84 1.8 NW 15 20 8 11 1009.2 1008.7 0.0
27/06:30am 22.3 23.8 19.7 85 1.7 NW 11 17 6 9 1009.6 1009.1 0.0
27/06:00am 22.6 24.8 19.6 83 1.9 W 7 9 4 5 1008.9 1008.4 0.0
27/05:30am 22.6 24.9 19.4 82 2.0 NW 6 9 3 5 1008.8 1008.3 0.0
27/05:00am 22.5 24.2 19.3 82 2.0 WNW 9 15 5 8 1008.8 1008.3 0.0
27/04:30am 22.7 24.2 18.9 79 2.4 WNW 9 15 5 8 1008.6 1008.1 0.0
27/04:00am 23.5 25.6 19.0 76 2.9 NW 6 9 3 5 1008.0 1007.5 0.0
27/03:30am 24.0 24.4 18.9 73 3.3 NE 15 22 8 12 1008.2 1007.7 0.0
27/03:00am 24.1 25.0 19.2 74 3.1 NNE 13 17 7 9 1008.7 1008.2 0.0
27/02:30am 24.1 24.2 19.2 74 3.1 NE 17 22 9 12 1008.5 1008.0 0.0
27/02:00am 24.0 23.7 19.1 74 3.1 NE 19 24 10 13 1008.8 1008.3 0.0
27/01:30am 23.9 23.4 19.2 75 3.0 NE 20 26 11 14 1009.0 1008.5 0.0
27/01:00am 24.0 23.5 19.1 74 3.1 NE 20 28 11 15 1009.2 1008.7 0.0
27/12:30am 24.0 23.5 19.1 74 3.1 NE 20 28 11 15 1009.4 1008.9 0.0
27/12:00am 24.0 23.4 18.9 73 3.3 ENE 20 28 11 15 1009.6 1009.1 0.0
 
Date/Time
EDT
Temp
°C
App
Temp
°C
Dew
Point
Rel
Hum
%
Delta-T
°C
Wind Press
QNH
hPa
Press
MSL
hPa
Rain
since 9 am
mm
Dir
 
Spd
km/h
Gust
km/h
Spd
kts
Gust
kts
26/11:30pm 24.1 22.7 18.7 72 3.4 NE 24 30 13 16 1009.7 1009.2 0.0
26/11:00pm 23.9 23.4 19.0 74 3.1 ENE 20 26 11 14 1009.9 1009.4 0.0
26/10:30pm 23.7 22.3 18.8 74 3.1 ENE 24 30 13 16 1009.7 1009.2 0.0
26/10:00pm 23.8 23.7 18.7 73 3.2 ENE 17 20 9 11 1010.1 1009.6 0.0
26/09:30pm 23.9 23.0 18.3 71 3.5 NE 20 30 11 16 1009.6 1009.1 0.0
26/09:00pm 24.0 23.0 18.9 73 3.3 NE 22 28 12 15 1009.4 1008.9 0.0
26/08:30pm 23.8 23.5 18.2 71 3.5 ENE 17 22 9 12 1009.2 1008.7 0.0
26/08:00pm 24.1 24.1 18.1 69 3.8 NE 15 17 8 9 1009.1 1008.6 0.0
26/07:30pm 23.9 24.1 18.5 72 3.4 ENE 15 22 8 12 1008.7 1008.2 0.0
26/07:00pm 23.9 24.4 18.3 71 3.5 ENE 13 20 7 11 1008.5 1008.0 0.0
26/06:30pm 24.2 25.0 18.2 69 3.8 E 11 17 6 9 1008.5 1008.0 0.0
26/06:00pm 24.7 25.5 18.2 67 4.1 E 11 15 6 8 1008.6 1008.1 0.0
26/05:30pm 25.0 26.1 18.0 65 4.4 E 9 15 5 8 1008.5 1008.0 0.0
26/05:00pm 25.6 26.2 17.8 62 4.9 E 11 17 6 9 1008.5 1008.0 0.0
26/04:30pm 26.8 27.4 18.6 60 5.3 E 13 19 7 10 1008.4 1007.9 0.0
26/04:00pm 27.1 27.4 17.8 56 5.9 E 13 19 7 10 1008.6 1008.1 0.0
26/03:30pm 27.9 28.3 18.9 58 5.8 ENE 15 19 8 10 1008.7 1008.2 0.0
26/03:00pm 28.0 28.8 19.8 61 5.4 E 15 20 8 11 1009.1 1008.6 0.0
26/02:30pm 28.1 28.0 18.8 57 6.0 E 17 20 9 11 1009.3 1008.8 0.0
26/02:00pm 28.2 28.5 19.7 60 5.6 E 17 22 9 12 1009.8 1009.3 0.0
26/01:30pm 28.5 29.1 20.2 60 5.5 E 17 20 9 11 1009.8 1009.3 0.0
26/01:00pm 27.6 28.5 20.9 67 4.5 E 17 20 9 11 1010.1 1009.6 0.0
26/12:30pm 26.8 27.6 19.9 66 4.5 ESE 15 20 8 11 1010.5 1010.0 0.0
26/12:00pm 26.7 27.3 20.3 68 4.2 E 17 20 9 11 1010.6 1010.1 0.0
26/11:30am 26.4 26.9 20.0 68 4.2 ESE 17 20 9 11 1010.8 1010.3 0.0
26/11:00am 26.3 27.6 20.2 69 4.0 SE 13 17 7 9 1011.1 1010.6 0.0
26/10:30am 24.4 25.0 18.6 70 3.7 S 13 15 7 8 1011.2 1010.7 0.0
26/10:00am 23.9 24.6 18.8 73 3.2 SSW 13 17 7 9 1010.9 1010.4 0.0
26/09:30am 23.4 24.1 18.9 76 2.9 SSW 13 17 7 9 1010.9 1010.4 0.0
26/09:00am 23.1 24.0 19.3 79 2.4 SSW 13 15 7 8 1010.8 1010.3 0.0
26/08:30am 22.0 23.2 19.0 83 1.9 SW 11 15 6 8 1010.7 1010.2 0.0
26/08:00am 21.2 21.4 18.6 85 1.6 WSW 15 19 8 10 1010.6 1010.1 0.0
26/07:30am 20.9 21.1 18.5 86 1.5 SW 15 19 8 10 1010.4 1009.9 0.0
26/07:00am 20.7 21.1 18.1 85 1.6 SW 13 17 7 9 1010.2 1009.7 0.0
26/06:30am 20.7 20.8 18.3 86 1.5 SW 15 17 8 9 1010.2 1009.7 0.0
26/06:00am 20.9 21.3 18.1 84 1.7 SW 13 15 7 8 1010.1 1009.6 0.0
26/05:30am 21.3 21.8 18.3 83 1.9 WSW 13 15 7 8 1009.9 1009.4 0.0
26/05:00am 21.2 22.4 18.2 83 1.9 SW 9 13 5 7 1010.0 1009.5 0.0
26/04:30am 21.7 22.8 17.9 79 2.4 SSW 9 13 5 7 1010.1 1009.6 0.0
26/04:00am 22.1 23.8 18.1 78 2.5 SE 6 13 3 7 1010.2 1009.7 0.0
26/03:30am 22.6 23.4 18.2 76 2.8 E 11 17 6 9 1010.3 1009.8 0.0
26/03:00am 22.6 22.3 18.2 76 2.8 E 17 20 9 11 1010.2 1009.7 0.0
26/02:30am 22.8 22.5 18.3 76 2.8 E 17 20 9 11 1010.8 1010.3 0.0
26/02:00am 22.8 22.9 18.3 76 2.8 E 15 20 8 11 1011.3 1010.8 0.0
26/01:30am 22.9 22.7 18.4 76 2.8 E 17 22 9 12 1011.4 1010.9 0.0
26/01:00am 23.1 23.0 18.8 77 2.7 E 17 26 9 14 1011.3 1010.8 0.0
26/12:30am 23.1 22.5 18.4 75 3.0 E 19 24 10 13 1012.0 1011.5 0.0
26/12:00am 23.2 22.0 18.5 75 3.0 E 22 28 12 15 1012.3 1011.8 0.0
 
Date/Time
EDT
Temp
°C
App
Temp
°C
Dew
Point
Rel
Hum
%
Delta-T
°C
Wind Press
QNH
hPa
Press
MSL
hPa
Rain
since 9 am
mm
Dir
 
Spd
km/h
Gust
km/h
Spd
kts
Gust
kts
25/11:30pm 23.6 23.2 18.9 75 3.0 SE 19 26 10 14 1012.8 1012.3 0.0
25/11:00pm 23.5 22.0 18.6 74 3.1 ESE 24 28 13 15 1012.8 1012.3 0.0
25/10:30pm 23.6 22.2 18.9 75 3.0 E 24 30 13 16 1012.9 1012.4 0.0
25/10:00pm 23.7 22.1 19.2 76 2.9 ESE 26 32 14 17 1012.7 1012.2 0.0
25/09:30pm 23.7 21.7 19.2 76 2.9 ESE 28 33 15 18 1012.6 1012.1 0.0
25/09:00pm 23.7 21.8 19.4 77 2.8 ESE 28 35 15 19 1012.5 1012.0 0.0
25/08:30pm 23.7 21.1 19.4 77 2.8 E 32 37 17 20 1012.2 1011.7 0.0
25/08:00pm 23.9 22.0 19.4 76 2.9 ESE 28 33 15 18 1012.1 1011.6 0.0
25/07:30pm 24.1 21.5 19.6 76 2.9 ESE 32 37 17 20 1011.6 1011.1 0.0
25/07:00pm 24.2 22.1 19.7 76 2.9 E 30 37 16 20 1011.4 1010.9 0.0
25/06:30pm 24.5 23.6 19.8 75 3.0 SE 24 32 13 17 1011.4 1010.9 0.0
25/06:00pm 25.2 24.1 20.2 74 3.3 SE 26 35 14 19 1011.3 1010.8 0.0
25/05:30pm 25.2 23.9 19.8 72 3.5 SE 26 32 14 17 1011.6 1011.1 0.0
25/05:00pm 25.0 23.5 19.4 71 3.6 SE 26 35 14 19 1011.5 1011.0 0.0
25/04:30pm 25.6 24.2 18.8 66 4.4 SE 24 33 13 18 1011.4 1010.9 0.0
25/04:00pm 26.0 24.9 19.4 67 4.3 SE 24 32 13 17 1011.6 1011.1 0.0
25/03:30pm 25.9 25.2 19.5 68 4.1 SE 22 30 12 16 1011.9 1011.4 0.0
25/03:00pm 25.9 24.7 19.3 67 4.3 SE 24 33 13 18 1012.1 1011.6 0.0
25/02:30pm 25.9 24.8 19.5 68 4.1 SSE 24 32 13 17 1012.5 1012.0 0.0
25/02:00pm 25.3 24.4 19.9 72 3.5 S 24 30 13 16 1012.6 1012.1 0.0
25/01:30pm 25.4 24.6 20.0 72 3.5 S 24 32 13 17 1012.7 1012.2 0.0
25/01:00pm 25.5 25.2 19.6 70 3.8 SSE 20 30 11 16 1013.0 1012.5 0.0
25/12:30pm 25.3 24.5 20.1 73 3.4 S 24 30 13 16 1013.3 1012.8 0.0
25/12:00pm 24.6 24.0 20.5 78 2.7 S 24 30 13 16 1013.5 1013.0 0.0
25/11:30am 24.7 24.4 20.4 77 2.8 S 22 28 12 15 1013.8 1013.3 0.0
25/11:00am 24.6 24.3 20.3 77 2.8 S 22 26 12 14 1013.9 1013.4 0.0
25/10:30am 24.4 24.5 20.3 78 2.7 S 20 26 11 14 1013.7 1013.2 0.0
25/10:00am 23.5 23.4 20.0 81 2.3 SSW 20 24 11 13 1013.7 1013.2 0.0
25/09:30am 24.3 24.8 20.8 81 2.3 SSW 19 24 10 13 1013.5 1013.0 0.0
25/09:00am 23.7 24.8 20.4 82 2.2 SSW 15 20 8 11 1013.5 1013.0 0.0
25/08:30am 23.1 23.8 20.4 85 1.8 SSW 17 22 9 12 1013.3 1012.8 0.0
25/08:00am 21.7 22.4 19.6 88 1.3 SW 15 19 8 10 1013.0 1012.5 0.0
25/07:30am 21.6 21.9 19.5 88 1.3 SW 17 24 9 13 1012.8 1012.3 0.0
25/07:00am 22.6 23.5 19.2 81 2.2 SSW 13 20 7 11 1012.6 1012.1 0.0
25/06:30am 23.4 23.8 19.8 80 2.3 SE 17 22 9 12 1012.2 1011.7 0.0
25/06:00am 23.3 23.1 19.7 80 2.3 ESE 20 26 11 14 1011.9 1011.4 0.0
25/05:30am 23.1 22.5 19.7 81 2.2 ESE 22 28 12 15 1011.5 1011.0 0.0
25/05:00am 23.2 22.5 19.6 80 2.3 SE 22 28 12 15 1011.4 1010.9 0.0
25/04:30am 23.3 22.4 19.9 81 2.2 ESE 24 28 13 15 1011.4 1010.9 0.0
25/04:00am 23.3 21.6 19.7 80 2.3 ESE 28 32 15 17 1011.5 1011.0 0.0
25/03:30am 23.5 21.8 19.8 80 2.4 ESE 28 35 15 19 1011.5 1011.0 0.0
25/03:00am 23.5 21.9 20.0 81 2.3 SE 28 35 15 19 1011.8 1011.3 0.0
25/02:30am 23.2 20.9 20.2 83 1.9 ESE 32 39 17 21 1012.0 1011.5 0.0
25/02:00am 23.6 22.0 20.1 81 2.3 SE 28 33 15 18 1012.4 1011.9 0.0
25/01:30am 23.6 21.0 19.9 80 2.4 ESE 33 39 18 21 1012.6 1012.1 0.0
25/01:00am 23.6 21.0 19.5 78 2.6 ESE 32 39 17 21 1012.7 1012.2 0.0
25/12:30am 23.8 21.9 20.1 80 2.4 SE 30 35 16 19 1013.1 1012.6 0.0
25/12:00am 23.9 22.4 20.2 80 2.4 SE 28 35 15 19 1013.4 1012.9 0.0
 
Date/Time
EDT
Temp
°C
App
Temp
°C
Dew
Point
Rel
Hum
%
Delta-T
°C
Wind Press
QNH
hPa
Press
MSL
hPa
Rain
since 9 am
mm
Dir
 
Spd
km/h
Gust
km/h
Spd
kts
Gust
kts
24/11:30pm 23.8 21.3 19.7 78 2.6 SE 32 37 17 20 1013.5 1013.0 0.0
24/11:00pm 24.1 22.4 20.6 81 2.3 SE 30 37 16 20 1013.6 1013.1 0.0
24/10:30pm 23.9 21.6 20.6 82 2.2 SE 33 43 18 23 1013.6 1013.1 0.0
24/10:00pm 23.9 22.7 20.8 83 2.0 SE 28 39 15 21 1013.7 1013.2 0.0
24/09:30pm 24.0 23.5 20.7 82 2.2 SSE 24 32 13 17 1013.7 1013.2 0.0
24/09:00pm 23.9 22.1 20.4 81 2.3 SE 30 39 16 21 1013.3 1012.8 0.0
24/08:30pm 24.0 23.4 20.5 81 2.3 SSE 24 33 13 18 1013.3 1012.8 0.0
24/08:00pm 24.0 23.2 20.1 79 2.5 SSE 24 33 13 18 1013.1 1012.6 0.0
24/07:30pm 23.9 22.6 20.6 82 2.2 SE 28 41 15 22 1012.7 1012.2 0.0
24/07:00pm 24.3 23.4 20.6 80 2.4 SSE 26 39 14 21 1012.6 1012.1 0.0
24/06:30pm 24.1 22.1 20.0 78 2.7 S 30 35 16 19 1012.1 1011.6 0.0
24/06:00pm 24.8 23.3 20.3 76 2.9 SSE 28 35 15 19 1011.8 1011.3 0.0
24/05:30pm 24.9 23.6 19.9 74 3.2 SSE 26 35 14 19 1011.6 1011.1 0.0
24/05:00pm 25.0 25.2 20.5 76 3.0 SSE 20 28 11 15 1011.5 1011.0 0.0

Other Formats:

Comma delimited format used in spreadsheet applications
http://www.bom.gov.au/fwo/IDN60801/IDN60801.94599.axf

JavaScript Object Notation format (JSON) in row-major order
http://www.bom.gov.au/fwo/IDN60801/IDN60801.94599.json